FIN64K LATI-EFHK
Flight info
| Callsign | FIN64K |
|---|---|
| Flight time | 2h 51m |
| Altitude | 38000 |
| Route | RINAV DCT ALELU DCT PARAK/N0440F370 DCT KOJOT DCT PODAN DCT BOKSU DCT GUNTA DCT SOKVA DCT ANAMA DCT KEMET DCT KEXLE DCT BEKNA DCT INTOR |
| Aircraft | A319/M-SDE1E2E3FGIJ1M1RWXY/LB1 |
Departure
| Time | 2026-05-05 18:22 |
|---|---|
| Airport | Tirana International Airport Mother Teresa (LATI) |
Arrival
| Time | 2026-05-05 21:14 |
|---|---|
| Airport | Helsinki Vantaa Airport (EFHK) |
| Time | Latitude | Longitude | Altitude | Speed | Heading |
|---|---|---|---|---|---|
| 2026-05-05 17:31 | 41.41871 | 19.71527 | 136 ft | 0 kts | 264° |
| 2026-05-05 18:09 | 41.41872 | 19.71540 | 124 ft | 4 kts | 264° |
| 2026-05-05 18:09 | 41.41874 | 19.71569 | 122 ft | 4 kts | 257° |
| 2026-05-05 18:09 | 41.41888 | 19.71588 | 120 ft | 4 kts | 177° |
| 2026-05-05 18:09 | 41.41914 | 19.71586 | 118 ft | 4 kts | 174° |
| 2026-05-05 18:10 | 41.41937 | 19.71583 | 120 ft | 1 kts | 174° |
| 2026-05-05 18:15 | 41.41936 | 19.71583 | 120 ft | 1 kts | 174° |
| 2026-05-05 18:15 | 41.41924 | 19.71585 | 118 ft | 2 kts | 174° |
| 2026-05-05 18:15 | 41.41894 | 19.71589 | 121 ft | 6 kts | 173° |
| 2026-05-05 18:15 | 41.41841 | 19.71597 | 124 ft | 10 kts | 174° |
| 2026-05-05 18:16 | 41.41762 | 19.71606 | 123 ft | 13 kts | 174° |
| 2026-05-05 18:16 | 41.41661 | 19.71619 | 124 ft | 16 kts | 174° |
| 2026-05-05 18:16 | 41.41563 | 19.71633 | 126 ft | 11 kts | 173° |
| 2026-05-05 18:16 | 41.41488 | 19.71642 | 125 ft | 11 kts | 174° |
| 2026-05-05 18:17 | 41.41414 | 19.71653 | 124 ft | 11 kts | 174° |
| 2026-05-05 18:17 | 41.41340 | 19.71661 | 128 ft | 11 kts | 176° |
| 2026-05-05 18:17 | 41.41267 | 19.71671 | 127 ft | 10 kts | 174° |
| 2026-05-05 18:17 | 41.41192 | 19.71682 | 126 ft | 12 kts | 174° |
| 2026-05-05 18:18 | 41.41101 | 19.71694 | 128 ft | 14 kts | 174° |
| 2026-05-05 18:18 | 41.40996 | 19.71707 | 131 ft | 16 kts | 175° |
| 2026-05-05 18:18 | 41.40882 | 19.71728 | 131 ft | 17 kts | 166° |
| 2026-05-05 18:18 | 41.40764 | 19.71758 | 132 ft | 18 kts | 172° |
| 2026-05-05 18:19 | 41.40640 | 19.71775 | 132 ft | 18 kts | 175° |
| 2026-05-05 18:19 | 41.40509 | 19.71791 | 132 ft | 16 kts | 174° |
| 2026-05-05 18:19 | 41.40413 | 19.71810 | 132 ft | 14 kts | 162° |
| 2026-05-05 18:19 | 41.40332 | 19.71881 | 133 ft | 14 kts | 144° |
| 2026-05-05 18:20 | 41.40255 | 19.71961 | 133 ft | 14 kts | 126° |
| 2026-05-05 18:20 | 41.40240 | 19.72041 | 133 ft | 14 kts | 86° |
| 2026-05-05 18:20 | 41.40251 | 19.72194 | 133 ft | 5 kts | 84° |
| 2026-05-05 18:20 | 41.40271 | 19.72221 | 151 ft | 4 kts | 13° |
| 2026-05-05 18:21 | 41.40283 | 19.72218 | 147 ft | 0 kts | 352° |
| 2026-05-05 18:21 | 41.40284 | 19.72218 | 147 ft | 0 kts | 352° |
| 2026-05-05 18:21 | 41.40286 | 19.72218 | 147 ft | 2 kts | 352° |
| 2026-05-05 18:21 | 41.40481 | 19.72190 | 155 ft | 66 kts | 354° |
| 2026-05-05 18:22 | 41.41175 | 19.72098 | 151 ft | 131 kts | 354° |
| 2026-05-05 18:22 | 41.42251 | 19.71953 | 316 ft | 166 kts | 354° |
| 2026-05-05 18:22 | 41.43397 | 19.71810 | 933 ft | 167 kts | 354° |
| 2026-05-05 18:22 | 41.44549 | 19.71664 | 1609 ft | 167 kts | 353° |
| 2026-05-05 18:23 | 41.45751 | 19.71512 | 2111 ft | 179 kts | 354° |
| 2026-05-05 18:23 | 41.47033 | 19.71435 | 2637 ft | 188 kts | 358° |
| 2026-05-05 18:23 | 41.48363 | 19.71422 | 3233 ft | 192 kts | 0° |
| 2026-05-05 18:23 | 41.49689 | 19.71501 | 3931 ft | 190 kts | 2° |
| 2026-05-05 18:24 | 41.51057 | 19.71452 | 4373 ft | 206 kts | 353° |
| 2026-05-05 18:24 | 41.52036 | 19.71299 | 4553 ft | 222 kts | 351° |
| 2026-05-05 18:24 | 41.54219 | 19.70912 | 5080 ft | 254 kts | 352° |
| 2026-05-05 18:24 | 41.55433 | 19.70787 | 5403 ft | 270 kts | 359° |
| 2026-05-05 18:25 | 41.57341 | 19.70950 | 6239 ft | 277 kts | 6° |
| 2026-05-05 18:25 | 41.58622 | 19.71184 | 6842 ft | 280 kts | 8° |
| 2026-05-05 18:25 | 41.61860 | 19.71909 | 8316 ft | 287 kts | 8° |
| 2026-05-05 18:25 | 41.63197 | 19.72208 | 8924 ft | 290 kts | 8° |
| 2026-05-05 18:26 | 41.65190 | 19.72635 | 9817 ft | 294 kts | 7° |
| 2026-05-05 18:26 | 41.67223 | 19.73050 | 10611 ft | 299 kts | 7° |
| 2026-05-05 18:26 | 41.69365 | 19.73469 | 10948 ft | 323 kts | 7° |
| 2026-05-05 18:26 | 41.71670 | 19.73899 | 11376 ft | 339 kts | 6° |
| 2026-05-05 18:27 | 41.74041 | 19.74330 | 11924 ft | 346 kts | 6° |
| 2026-05-05 18:27 | 41.76432 | 19.74762 | 12220 ft | 349 kts | 6° |
| 2026-05-05 18:27 | 41.78821 | 19.75198 | 13013 ft | 352 kts | 6° |
| 2026-05-05 18:27 | 41.81259 | 19.75647 | 13825 ft | 355 kts | 6° |
| 2026-05-05 18:28 | 41.86218 | 19.76569 | 15211 ft | 361 kts | 6° |
| 2026-05-05 18:28 | 41.88691 | 19.77029 | 15898 ft | 364 kts | 6° |
| 2026-05-05 18:28 | 41.91219 | 19.77499 | 16584 ft | 367 kts | 6° |
| 2026-05-05 18:29 | 41.93764 | 19.77972 | 17272 ft | 370 kts | 6° |
| 2026-05-05 18:29 | 41.96327 | 19.78448 | 17981 ft | 373 kts | 5° |
| 2026-05-05 18:29 | 41.98908 | 19.78923 | 18621 ft | 375 kts | 5° |
| 2026-05-05 18:29 | 42.01486 | 19.79319 | 19204 ft | 378 kts | 3° |
| 2026-05-05 18:30 | 42.04109 | 19.79651 | 19803 ft | 380 kts | 2° |
| 2026-05-05 18:30 | 42.06761 | 19.79952 | 20394 ft | 383 kts | 2° |
| 2026-05-05 18:30 | 42.09430 | 19.80249 | 21007 ft | 385 kts | 2° |
| 2026-05-05 18:30 | 42.12113 | 19.80553 | 21603 ft | 388 kts | 2° |
| 2026-05-05 18:31 | 42.14824 | 19.80872 | 22164 ft | 391 kts | 2° |
| 2026-05-05 18:31 | 42.17542 | 19.81208 | 22751 ft | 393 kts | 3° |
| 2026-05-05 18:31 | 42.20275 | 19.81555 | 23305 ft | 396 kts | 3° |
| 2026-05-05 18:31 | 42.22998 | 19.81903 | 23815 ft | 399 kts | 3° |
| 2026-05-05 18:32 | 42.25771 | 19.82258 | 24269 ft | 402 kts | 3° |
| 2026-05-05 18:32 | 42.28572 | 19.82615 | 24731 ft | 404 kts | 2° |
| 2026-05-05 18:32 | 42.31390 | 19.82969 | 25176 ft | 407 kts | 2° |
| 2026-05-05 18:32 | 42.34225 | 19.83322 | 25613 ft | 410 kts | 2° |
| 2026-05-05 18:33 | 42.37073 | 19.83680 | 26019 ft | 412 kts | 2° |
| 2026-05-05 18:33 | 42.39912 | 19.84037 | 26429 ft | 415 kts | 2° |
| 2026-05-05 18:33 | 42.42792 | 19.84401 | 26840 ft | 417 kts | 2° |
| 2026-05-05 18:33 | 42.45703 | 19.84769 | 27236 ft | 420 kts | 2° |
| 2026-05-05 18:34 | 42.48631 | 19.85129 | 27634 ft | 422 kts | 1° |
| 2026-05-05 18:34 | 42.51577 | 19.85402 | 28048 ft | 424 kts | 0° |
| 2026-05-05 18:34 | 42.54537 | 19.85590 | 28459 ft | 427 kts | 359° |
| 2026-05-05 18:34 | 42.57489 | 19.85736 | 28851 ft | 429 kts | 359° |
| 2026-05-05 18:35 | 42.60482 | 19.85874 | 29248 ft | 432 kts | 359° |
| 2026-05-05 18:35 | 42.63499 | 19.86021 | 29618 ft | 434 kts | 359° |
| 2026-05-05 18:35 | 42.66524 | 19.86186 | 29955 ft | 437 kts | 359° |
| 2026-05-05 18:35 | 42.69575 | 19.86369 | 30307 ft | 439 kts | 360° |
| 2026-05-05 18:36 | 42.72636 | 19.86565 | 30637 ft | 440 kts | 359° |
| 2026-05-05 18:36 | 42.75663 | 19.86763 | 30968 ft | 441 kts | 359° |
| 2026-05-05 18:36 | 42.78738 | 19.86964 | 31285 ft | 443 kts | 359° |
| 2026-05-05 18:36 | 42.81836 | 19.87166 | 31618 ft | 443 kts | 359° |
| 2026-05-05 18:37 | 42.84914 | 19.87366 | 32064 ft | 441 kts | 359° |
| 2026-05-05 18:37 | 42.87937 | 19.87565 | 32545 ft | 438 kts | 358° |
| 2026-05-05 18:37 | 42.90975 | 19.87763 | 33030 ft | 436 kts | 358° |
| 2026-05-05 18:37 | 42.94001 | 19.87954 | 33503 ft | 433 kts | 357° |
| 2026-05-05 18:38 | 42.97013 | 19.88142 | 33984 ft | 431 kts | 357° |
| 2026-05-05 18:38 | 43.00012 | 19.88330 | 34399 ft | 428 kts | 357° |
| 2026-05-05 18:38 | 43.02986 | 19.88515 | 34784 ft | 427 kts | 357° |
| 2026-05-05 18:38 | 43.05918 | 19.88695 | 35136 ft | 426 kts | 357° |
| 2026-05-05 18:39 | 43.08885 | 19.88880 | 35455 ft | 425 kts | 358° |
| 2026-05-05 18:39 | 43.11852 | 19.89066 | 35747 ft | 425 kts | 358° |
| 2026-05-05 18:39 | 43.14808 | 19.89252 | 35986 ft | 425 kts | 358° |
| 2026-05-05 18:39 | 43.17731 | 19.89437 | 36043 ft | 425 kts | 358° |
| 2026-05-05 18:40 | 43.23646 | 19.89807 | 36043 ft | 425 kts | 358° |
| 2026-05-05 18:40 | 43.29562 | 19.90189 | 36042 ft | 425 kts | 358° |
| 2026-05-05 18:41 | 43.35482 | 19.90575 | 36034 ft | 426 kts | 358° |
| 2026-05-05 18:41 | 43.41372 | 19.90953 | 36036 ft | 426 kts | 358° |
| 2026-05-05 18:42 | 43.47320 | 19.91330 | 36033 ft | 427 kts | 358° |
| 2026-05-05 18:42 | 43.53234 | 19.91707 | 36023 ft | 427 kts | 358° |
| 2026-05-05 18:43 | 43.59179 | 19.92094 | 36024 ft | 428 kts | 358° |
| 2026-05-05 18:43 | 43.65136 | 19.92480 | 36023 ft | 428 kts | 358° |
| 2026-05-05 18:44 | 43.71103 | 19.92866 | 36013 ft | 428 kts | 359° |
| 2026-05-05 18:44 | 43.77081 | 19.93250 | 36016 ft | 429 kts | 359° |
| 2026-05-05 18:45 | 43.83018 | 19.93631 | 36003 ft | 430 kts | 359° |
| 2026-05-05 18:45 | 43.89007 | 19.94025 | 36003 ft | 431 kts | 359° |
| 2026-05-05 18:46 | 43.95012 | 19.94408 | 36010 ft | 431 kts | 359° |
| 2026-05-05 18:46 | 44.00989 | 19.94798 | 35997 ft | 432 kts | 359° |
| 2026-05-05 18:47 | 44.07008 | 19.95194 | 35990 ft | 433 kts | 359° |
| 2026-05-05 18:47 | 44.13058 | 19.95594 | 35994 ft | 434 kts | 359° |
| 2026-05-05 18:48 | 44.19100 | 19.95987 | 35989 ft | 434 kts | 359° |
| 2026-05-05 18:48 | 44.25100 | 19.96383 | 35985 ft | 434 kts | 359° |
| 2026-05-05 18:49 | 44.31144 | 19.96780 | 35975 ft | 435 kts | 359° |
| 2026-05-05 18:49 | 44.37204 | 19.97180 | 35976 ft | 435 kts | 359° |
| 2026-05-05 18:50 | 44.43222 | 19.97586 | 35971 ft | 435 kts | 359° |
| 2026-05-05 18:50 | 44.49244 | 19.97984 | 35971 ft | 435 kts | 359° |
| 2026-05-05 18:51 | 44.55307 | 19.98379 | 35969 ft | 435 kts | 359° |
| 2026-05-05 18:51 | 44.61320 | 19.98772 | 35963 ft | 435 kts | 359° |
| 2026-05-05 18:52 | 44.67391 | 19.99184 | 35957 ft | 435 kts | 359° |
| 2026-05-05 18:52 | 44.73452 | 19.99594 | 35959 ft | 436 kts | 359° |
| 2026-05-05 18:53 | 44.79479 | 19.99994 | 35955 ft | 436 kts | 359° |
| 2026-05-05 18:53 | 44.85527 | 20.00397 | 35953 ft | 436 kts | 359° |
| 2026-05-05 18:54 | 44.91601 | 20.00799 | 35951 ft | 437 kts | 360° |
| 2026-05-05 18:54 | 44.97691 | 20.01213 | 35953 ft | 437 kts | 360° |
| 2026-05-05 18:55 | 45.03738 | 20.01635 | 35953 ft | 438 kts | 360° |
| 2026-05-05 18:55 | 45.09833 | 20.02054 | 35954 ft | 438 kts | 360° |
| 2026-05-05 18:56 | 45.15929 | 20.02469 | 35955 ft | 438 kts | 360° |
| 2026-05-05 18:56 | 45.21997 | 20.02869 | 35958 ft | 438 kts | 360° |
| 2026-05-05 18:57 | 45.28112 | 20.03276 | 35957 ft | 438 kts | 0° |
| 2026-05-05 18:57 | 45.34163 | 20.03694 | 35956 ft | 438 kts | 0° |
| 2026-05-05 18:58 | 45.40259 | 20.04121 | 35955 ft | 438 kts | 0° |
| 2026-05-05 18:58 | 45.46353 | 20.04533 | 36134 ft | 439 kts | 0° |
| 2026-05-05 18:59 | 45.49416 | 20.04745 | 36456 ft | 438 kts | 0° |
| 2026-05-05 18:59 | 45.52431 | 20.04955 | 36748 ft | 438 kts | 0° |
| 2026-05-05 18:59 | 45.55474 | 20.05165 | 36921 ft | 438 kts | 0° |
| 2026-05-05 18:59 | 45.58533 | 20.05377 | 36952 ft | 438 kts | 0° |
| 2026-05-05 19:00 | 45.64629 | 20.05803 | 36946 ft | 437 kts | 0° |
| 2026-05-05 19:00 | 45.70674 | 20.06217 | 36947 ft | 437 kts | 0° |
| 2026-05-05 19:01 | 45.76769 | 20.06631 | 36954 ft | 437 kts | 0° |
| 2026-05-05 19:01 | 45.82852 | 20.07057 | 36945 ft | 438 kts | 0° |
| 2026-05-05 19:02 | 45.88937 | 20.07482 | 36946 ft | 437 kts | 0° |
| 2026-05-05 19:02 | 45.94987 | 20.07906 | 36944 ft | 438 kts | 0° |
| 2026-05-05 19:03 | 46.01070 | 20.08334 | 36943 ft | 438 kts | 0° |
| 2026-05-05 19:03 | 46.07178 | 20.08761 | 36943 ft | 438 kts | 0° |
| 2026-05-05 19:04 | 46.13277 | 20.09193 | 36943 ft | 438 kts | 0° |
| 2026-05-05 19:04 | 46.19276 | 20.10415 | 36944 ft | 441 kts | 12° |
| 2026-05-05 19:05 | 46.25249 | 20.12546 | 36945 ft | 441 kts | 12° |
| 2026-05-05 19:05 | 46.31220 | 20.14666 | 36940 ft | 441 kts | 12° |
| 2026-05-05 19:06 | 46.37165 | 20.16773 | 36940 ft | 441 kts | 12° |
| 2026-05-05 19:06 | 46.43140 | 20.18899 | 36939 ft | 441 kts | 12° |
| 2026-05-05 19:07 | 46.48058 | 20.20654 | 36940 ft | 441 kts | 12° |
| 2026-05-05 19:07 | 46.55024 | 20.23138 | 36937 ft | 441 kts | 12° |
| 2026-05-05 19:08 | 46.61003 | 20.25278 | 36937 ft | 441 kts | 12° |
| 2026-05-05 19:08 | 46.66939 | 20.27408 | 36935 ft | 441 kts | 12° |
| 2026-05-05 19:09 | 46.72906 | 20.29559 | 36936 ft | 441 kts | 12° |
| 2026-05-05 19:09 | 46.78860 | 20.31728 | 36931 ft | 441 kts | 12° |
| 2026-05-05 19:10 | 46.84809 | 20.33888 | 36929 ft | 441 kts | 12° |
| 2026-05-05 19:10 | 46.90746 | 20.36037 | 36926 ft | 441 kts | 12° |
| 2026-05-05 19:11 | 46.96712 | 20.38195 | 36925 ft | 441 kts | 12° |
| 2026-05-05 19:11 | 47.02684 | 20.40360 | 36922 ft | 441 kts | 12° |
| 2026-05-05 19:12 | 47.08601 | 20.42529 | 36921 ft | 441 kts | 12° |
| 2026-05-05 19:12 | 47.14569 | 20.44715 | 36921 ft | 441 kts | 12° |
| 2026-05-05 19:13 | 47.20505 | 20.46889 | 36923 ft | 441 kts | 12° |
| 2026-05-05 19:13 | 47.26466 | 20.49091 | 36922 ft | 441 kts | 12° |
| 2026-05-05 19:14 | 47.31429 | 20.50915 | 36923 ft | 441 kts | 12° |
| 2026-05-05 19:14 | 47.37416 | 20.53120 | 36920 ft | 442 kts | 12° |
| 2026-05-05 19:15 | 47.43338 | 20.55318 | 36921 ft | 442 kts | 12° |
| 2026-05-05 19:15 | 47.49311 | 20.57525 | 36918 ft | 442 kts | 12° |
| 2026-05-05 19:16 | 47.55286 | 20.59746 | 36917 ft | 442 kts | 12° |
| 2026-05-05 19:16 | 47.61216 | 20.61956 | 36915 ft | 442 kts | 13° |
| 2026-05-05 19:17 | 47.67197 | 20.64197 | 36914 ft | 442 kts | 13° |
| 2026-05-05 19:17 | 47.73135 | 20.66426 | 36911 ft | 442 kts | 13° |
| 2026-05-05 19:18 | 47.79114 | 20.68666 | 36913 ft | 442 kts | 13° |
| 2026-05-05 19:18 | 47.85065 | 20.70903 | 36913 ft | 442 kts | 13° |
| 2026-05-05 19:19 | 47.91045 | 20.73159 | 36910 ft | 442 kts | 13° |
| 2026-05-05 19:19 | 47.97025 | 20.75415 | 36910 ft | 443 kts | 13° |
| 2026-05-05 19:20 | 48.02985 | 20.77672 | 36911 ft | 443 kts | 13° |
| 2026-05-05 19:20 | 48.08965 | 20.79946 | 36905 ft | 443 kts | 13° |
| 2026-05-05 19:21 | 48.14907 | 20.82208 | 36906 ft | 443 kts | 13° |
| 2026-05-05 19:21 | 48.20898 | 20.84502 | 36904 ft | 443 kts | 13° |
| 2026-05-05 19:22 | 48.26881 | 20.86794 | 36908 ft | 443 kts | 13° |
| 2026-05-05 19:22 | 48.32833 | 20.89078 | 36906 ft | 443 kts | 13° |
| 2026-05-05 19:23 | 48.38830 | 20.91380 | 36903 ft | 444 kts | 13° |
| 2026-05-05 19:23 | 48.44793 | 20.93679 | 36900 ft | 444 kts | 13° |
| 2026-05-05 19:24 | 48.50787 | 20.95995 | 36901 ft | 444 kts | 13° |
| 2026-05-05 19:24 | 48.56735 | 20.98298 | 36897 ft | 444 kts | 13° |
| 2026-05-05 19:25 | 48.62741 | 21.00624 | 36896 ft | 444 kts | 13° |
| 2026-05-05 19:25 | 48.68732 | 21.02944 | 36894 ft | 444 kts | 13° |
| 2026-05-05 19:26 | 48.74686 | 21.05273 | 36893 ft | 444 kts | 13° |
| 2026-05-05 19:26 | 48.80670 | 21.07632 | 36893 ft | 444 kts | 13° |
| 2026-05-05 19:27 | 48.86651 | 21.09977 | 36893 ft | 444 kts | 13° |
| 2026-05-05 19:27 | 48.92640 | 21.12320 | 36898 ft | 444 kts | 13° |
| 2026-05-05 19:28 | 48.98541 | 21.14940 | 36895 ft | 446 kts | 21° |
| 2026-05-05 19:28 | 49.04229 | 21.18777 | 36894 ft | 446 kts | 22° |
| 2026-05-05 19:29 | 49.09934 | 21.22611 | 36892 ft | 447 kts | 22° |
| 2026-05-05 19:29 | 49.15598 | 21.26426 | 36883 ft | 447 kts | 22° |
| 2026-05-05 19:30 | 49.21269 | 21.30270 | 36891 ft | 447 kts | 22° |
| 2026-05-05 19:30 | 49.26960 | 21.34131 | 36886 ft | 447 kts | 22° |
| 2026-05-05 19:31 | 49.32644 | 21.38011 | 36886 ft | 447 kts | 22° |
| 2026-05-05 19:31 | 49.38328 | 21.41893 | 36882 ft | 447 kts | 22° |
| 2026-05-05 19:32 | 49.44196 | 21.44789 | 36874 ft | 444 kts | 9° |
| 2026-05-05 19:32 | 49.50267 | 21.46575 | 36879 ft | 444 kts | 9° |
| 2026-05-05 19:33 | 49.56335 | 21.48379 | 36877 ft | 444 kts | 9° |
| 2026-05-05 19:33 | 49.62383 | 21.50192 | 36874 ft | 444 kts | 9° |
| 2026-05-05 19:34 | 49.68453 | 21.52011 | 36866 ft | 444 kts | 9° |
| 2026-05-05 19:35 | 49.77549 | 21.54737 | 36864 ft | 444 kts | 9° |
| 2026-05-05 19:35 | 49.83623 | 21.56573 | 36861 ft | 444 kts | 9° |
| 2026-05-05 19:36 | 49.89703 | 21.58414 | 36860 ft | 445 kts | 9° |
| 2026-05-05 19:36 | 49.95784 | 21.60256 | 36857 ft | 445 kts | 9° |
| 2026-05-05 19:37 | 50.01836 | 21.62093 | 36854 ft | 445 kts | 9° |
| 2026-05-05 19:37 | 50.07923 | 21.63947 | 36853 ft | 445 kts | 9° |
| 2026-05-05 19:38 | 50.13984 | 21.65791 | 36854 ft | 445 kts | 9° |
| 2026-05-05 19:38 | 50.20069 | 21.67650 | 36851 ft | 445 kts | 9° |
| 2026-05-05 19:39 | 50.26169 | 21.69529 | 36848 ft | 446 kts | 9° |
| 2026-05-05 19:39 | 50.32258 | 21.71408 | 36842 ft | 446 kts | 9° |
| 2026-05-05 19:40 | 50.38313 | 21.73283 | 36836 ft | 446 kts | 9° |
| 2026-05-05 19:40 | 50.44420 | 21.75168 | 36828 ft | 446 kts | 9° |
| 2026-05-05 19:41 | 50.50503 | 21.77051 | 36832 ft | 446 kts | 9° |
| 2026-05-05 19:41 | 50.56577 | 21.78940 | 36827 ft | 446 kts | 9° |
| 2026-05-05 19:42 | 50.62684 | 21.80839 | 36826 ft | 446 kts | 9° |
| 2026-05-05 19:42 | 50.68756 | 21.82732 | 36827 ft | 446 kts | 9° |
| 2026-05-05 19:43 | 50.74851 | 21.84637 | 36825 ft | 446 kts | 9° |
| 2026-05-05 19:43 | 50.80945 | 21.86554 | 36825 ft | 447 kts | 9° |
| 2026-05-05 19:44 | 50.87028 | 21.88475 | 36820 ft | 447 kts | 9° |
| 2026-05-05 19:44 | 50.93120 | 21.90398 | 36820 ft | 446 kts | 9° |
| 2026-05-05 19:45 | 50.99225 | 21.92339 | 36821 ft | 446 kts | 9° |
| 2026-05-05 19:45 | 51.05283 | 21.94270 | 36817 ft | 447 kts | 9° |
| 2026-05-05 19:46 | 51.11383 | 21.96204 | 36811 ft | 447 kts | 9° |
| 2026-05-05 19:46 | 51.17489 | 21.98150 | 36812 ft | 447 kts | 9° |
| 2026-05-05 19:47 | 51.23597 | 22.00114 | 36811 ft | 447 kts | 9° |
| 2026-05-05 19:47 | 51.29674 | 22.02072 | 36810 ft | 447 kts | 9° |
| 2026-05-05 19:48 | 51.35777 | 22.04030 | 36805 ft | 447 kts | 9° |
| 2026-05-05 19:48 | 51.41885 | 22.05995 | 36806 ft | 447 kts | 8° |
| 2026-05-05 19:49 | 51.47965 | 22.07962 | 36804 ft | 448 kts | 9° |
| 2026-05-05 19:49 | 51.54086 | 22.09951 | 36803 ft | 448 kts | 8° |
| 2026-05-05 19:50 | 51.60200 | 22.11938 | 36800 ft | 448 kts | 8° |
| 2026-05-05 19:50 | 51.66328 | 22.13938 | 36799 ft | 449 kts | 8° |
| 2026-05-05 19:51 | 51.72420 | 22.15938 | 36800 ft | 449 kts | 8° |
| 2026-05-05 19:51 | 51.78543 | 22.17946 | 36798 ft | 449 kts | 8° |
| 2026-05-05 19:52 | 51.84678 | 22.19961 | 36794 ft | 449 kts | 8° |
| 2026-05-05 19:52 | 51.90777 | 22.21972 | 36797 ft | 449 kts | 8° |
| 2026-05-05 19:53 | 51.96880 | 22.23994 | 36799 ft | 449 kts | 8° |
| 2026-05-05 19:53 | 52.03022 | 22.26035 | 36797 ft | 449 kts | 8° |
| 2026-05-05 19:54 | 52.09118 | 22.28063 | 36796 ft | 449 kts | 8° |
| 2026-05-05 19:54 | 52.15255 | 22.30101 | 36793 ft | 449 kts | 8° |
| 2026-05-05 19:55 | 52.21398 | 22.32161 | 36794 ft | 450 kts | 8° |
| 2026-05-05 19:55 | 52.27528 | 22.34233 | 36795 ft | 450 kts | 8° |
| 2026-05-05 19:56 | 52.33633 | 22.36284 | 36790 ft | 450 kts | 8° |
| 2026-05-05 19:56 | 52.39767 | 22.38340 | 36788 ft | 450 kts | 8° |
| 2026-05-05 19:57 | 52.45913 | 22.40419 | 36786 ft | 450 kts | 8° |
| 2026-05-05 19:57 | 52.52024 | 22.42490 | 36794 ft | 450 kts | 8° |
| 2026-05-05 19:58 | 52.58164 | 22.44573 | 36793 ft | 451 kts | 8° |
| 2026-05-05 19:58 | 52.64324 | 22.46689 | 36798 ft | 451 kts | 8° |
| 2026-05-05 19:59 | 52.70441 | 22.48784 | 36791 ft | 451 kts | 8° |
| 2026-05-05 19:59 | 52.76593 | 22.50894 | 36805 ft | 451 kts | 8° |
| 2026-05-05 20:00 | 52.82767 | 22.53016 | 36800 ft | 451 kts | 8° |
| 2026-05-05 20:00 | 52.88883 | 22.55131 | 36814 ft | 452 kts | 8° |
| 2026-05-05 20:01 | 52.95044 | 22.57276 | 36816 ft | 452 kts | 8° |
| 2026-05-05 20:01 | 53.00179 | 22.59059 | 36815 ft | 452 kts | 8° |
| 2026-05-05 20:02 | 53.07346 | 22.61545 | 36823 ft | 452 kts | 8° |
| 2026-05-05 20:02 | 53.12479 | 22.63338 | 36826 ft | 452 kts | 8° |
| 2026-05-05 20:03 | 53.18644 | 22.65499 | 36830 ft | 452 kts | 8° |
| 2026-05-05 20:03 | 53.24811 | 22.67664 | 36830 ft | 453 kts | 8° |
| 2026-05-05 20:04 | 53.30957 | 22.69834 | 36839 ft | 453 kts | 8° |
| 2026-05-05 20:04 | 53.37137 | 22.72021 | 36845 ft | 453 kts | 7° |
| 2026-05-05 20:05 | 53.43320 | 22.74204 | 36844 ft | 453 kts | 7° |
| 2026-05-05 20:05 | 53.49462 | 22.76391 | 36846 ft | 453 kts | 7° |
| 2026-05-05 20:06 | 53.55635 | 22.78604 | 36854 ft | 453 kts | 7° |
| 2026-05-05 20:06 | 53.61820 | 22.80812 | 36856 ft | 453 kts | 7° |
| 2026-05-05 20:07 | 53.67965 | 22.83006 | 36864 ft | 453 kts | 7° |
| 2026-05-05 20:07 | 53.74145 | 22.85223 | 36866 ft | 454 kts | 7° |
| 2026-05-05 20:08 | 53.80333 | 22.87464 | 36875 ft | 454 kts | 7° |
| 2026-05-05 20:08 | 53.86481 | 22.89704 | 36868 ft | 454 kts | 7° |
| 2026-05-05 20:09 | 53.92666 | 22.91934 | 36880 ft | 454 kts | 7° |
| 2026-05-05 20:09 | 53.98859 | 22.94176 | 36873 ft | 454 kts | 7° |
| 2026-05-05 20:10 | 54.05053 | 22.96429 | 36891 ft | 455 kts | 7° |
| 2026-05-05 20:10 | 54.11208 | 22.98681 | 36884 ft | 455 kts | 7° |
| 2026-05-05 20:11 | 54.17419 | 23.00969 | 36891 ft | 455 kts | 7° |
| 2026-05-05 20:11 | 54.23599 | 23.03262 | 36889 ft | 456 kts | 7° |
| 2026-05-05 20:12 | 54.29809 | 23.05562 | 36892 ft | 456 kts | 7° |
| 2026-05-05 20:12 | 54.36034 | 23.07729 | 36894 ft | 455 kts | 5° |
| 2026-05-05 20:13 | 54.42281 | 23.09673 | 36898 ft | 455 kts | 4° |
| 2026-05-05 20:13 | 54.48470 | 23.11586 | 36898 ft | 455 kts | 5° |
| 2026-05-05 20:14 | 54.54701 | 23.13579 | 36897 ft | 455 kts | 5° |
| 2026-05-05 20:14 | 54.60892 | 23.15610 | 36900 ft | 455 kts | 5° |
| 2026-05-05 20:15 | 54.67125 | 23.17658 | 36898 ft | 455 kts | 5° |
| 2026-05-05 20:15 | 54.73332 | 23.19696 | 36897 ft | 455 kts | 5° |
| 2026-05-05 20:16 | 54.79566 | 23.21723 | 36897 ft | 455 kts | 5° |
| 2026-05-05 20:16 | 54.85811 | 23.23753 | 36897 ft | 455 kts | 5° |
| 2026-05-05 20:17 | 54.92002 | 23.25799 | 36897 ft | 455 kts | 5° |
| 2026-05-05 20:17 | 54.98217 | 23.27865 | 36897 ft | 455 kts | 5° |
| 2026-05-05 20:18 | 55.04456 | 23.29940 | 36893 ft | 455 kts | 5° |
| 2026-05-05 20:18 | 55.10694 | 23.32017 | 36895 ft | 456 kts | 5° |
| 2026-05-05 20:19 | 55.16895 | 23.34089 | 36891 ft | 456 kts | 5° |
| 2026-05-05 20:19 | 55.23145 | 23.36180 | 36895 ft | 456 kts | 5° |
| 2026-05-05 20:20 | 55.29389 | 23.38266 | 36896 ft | 457 kts | 5° |
| 2026-05-05 20:20 | 55.35613 | 23.40363 | 36896 ft | 457 kts | 5° |
| 2026-05-05 20:21 | 55.41870 | 23.42476 | 36891 ft | 458 kts | 5° |
| 2026-05-05 20:21 | 55.48138 | 23.44600 | 36895 ft | 458 kts | 5° |
| 2026-05-05 20:22 | 55.54422 | 23.46742 | 36893 ft | 459 kts | 5° |
| 2026-05-05 20:22 | 55.60654 | 23.48873 | 36901 ft | 459 kts | 5° |
| 2026-05-05 20:23 | 55.66946 | 23.51023 | 36911 ft | 460 kts | 5° |
| 2026-05-05 20:23 | 55.73207 | 23.53164 | 36917 ft | 460 kts | 5° |
| 2026-05-05 20:24 | 55.79505 | 23.55335 | 36910 ft | 461 kts | 5° |
| 2026-05-05 20:24 | 55.85825 | 23.57534 | 36920 ft | 462 kts | 5° |
| 2026-05-05 20:25 | 55.92114 | 23.59713 | 36914 ft | 462 kts | 5° |
| 2026-05-05 20:25 | 55.98443 | 23.61907 | 36917 ft | 462 kts | 5° |
| 2026-05-05 20:26 | 56.04732 | 23.64099 | 36910 ft | 463 kts | 5° |
| 2026-05-05 20:26 | 56.11077 | 23.66325 | 36904 ft | 463 kts | 5° |
| 2026-05-05 20:27 | 56.17417 | 23.68556 | 36901 ft | 464 kts | 5° |
| 2026-05-05 20:27 | 56.23728 | 23.70791 | 36899 ft | 464 kts | 5° |
| 2026-05-05 20:28 | 56.30071 | 23.73034 | 36899 ft | 464 kts | 5° |
| 2026-05-05 20:28 | 56.36382 | 23.75276 | 36903 ft | 464 kts | 5° |
| 2026-05-05 20:29 | 56.42730 | 23.77494 | 36901 ft | 464 kts | 5° |
| 2026-05-05 20:29 | 56.49059 | 23.79641 | 36903 ft | 464 kts | 5° |
| 2026-05-05 20:30 | 56.55427 | 23.81805 | 36911 ft | 464 kts | 5° |
| 2026-05-05 20:30 | 56.61779 | 23.83988 | 36905 ft | 464 kts | 5° |
| 2026-05-05 20:31 | 56.68139 | 23.86194 | 36910 ft | 464 kts | 5° |
| 2026-05-05 20:31 | 56.74448 | 23.88393 | 36917 ft | 464 kts | 5° |
| 2026-05-05 20:32 | 56.80781 | 23.90611 | 36921 ft | 464 kts | 5° |
| 2026-05-05 20:32 | 56.87127 | 23.92834 | 36924 ft | 464 kts | 5° |
| 2026-05-05 20:33 | 56.93487 | 23.95062 | 36922 ft | 464 kts | 5° |
| 2026-05-05 20:33 | 56.99842 | 23.97294 | 36925 ft | 464 kts | 5° |
| 2026-05-05 20:34 | 57.06158 | 23.99524 | 36917 ft | 464 kts | 5° |
| 2026-05-05 20:34 | 57.12477 | 24.01771 | 36916 ft | 464 kts | 5° |
| 2026-05-05 20:35 | 57.18819 | 24.04038 | 36914 ft | 464 kts | 5° |
| 2026-05-05 20:35 | 57.25166 | 24.06312 | 36912 ft | 463 kts | 5° |
| 2026-05-05 20:36 | 57.26233 | 24.06693 | 36913 ft | 463 kts | 5° |
| 2026-05-05 20:36 | 57.37546 | 24.10736 | 36912 ft | 463 kts | 5° |
| 2026-05-05 20:37 | 57.43884 | 24.13025 | 36914 ft | 463 kts | 5° |
| 2026-05-05 20:37 | 57.50227 | 24.15320 | 36914 ft | 464 kts | 5° |
| 2026-05-05 20:38 | 57.56520 | 24.17615 | 36916 ft | 464 kts | 5° |
| 2026-05-05 20:38 | 57.62862 | 24.19928 | 36915 ft | 464 kts | 5° |
| 2026-05-05 20:39 | 57.69205 | 24.22258 | 36916 ft | 464 kts | 5° |
| 2026-05-05 20:39 | 57.75513 | 24.24581 | 36918 ft | 464 kts | 5° |
| 2026-05-05 20:40 | 57.81872 | 24.26925 | 36913 ft | 464 kts | 5° |
| 2026-05-05 20:40 | 57.88235 | 24.29274 | 36917 ft | 465 kts | 5° |
| 2026-05-05 20:41 | 57.94554 | 24.31569 | 36913 ft | 464 kts | 5° |
| 2026-05-05 20:41 | 58.00924 | 24.33726 | 36913 ft | 464 kts | 4° |
| 2026-05-05 20:42 | 58.07257 | 24.35849 | 36914 ft | 465 kts | 4° |
| 2026-05-05 20:42 | 58.13638 | 24.38031 | 36908 ft | 465 kts | 4° |
| 2026-05-05 20:43 | 58.19981 | 24.40234 | 36894 ft | 465 kts | 4° |
| 2026-05-05 20:43 | 58.26354 | 24.42464 | 36893 ft | 465 kts | 4° |
| 2026-05-05 20:44 | 58.32733 | 24.44702 | 36899 ft | 466 kts | 4° |
| 2026-05-05 20:44 | 58.39115 | 24.46940 | 36893 ft | 466 kts | 4° |
| 2026-05-05 20:45 | 58.48657 | 24.50294 | 36898 ft | 466 kts | 4° |
| 2026-05-05 20:45 | 58.55058 | 24.52557 | 36896 ft | 466 kts | 4° |
| 2026-05-05 20:46 | 58.61444 | 24.54820 | 36897 ft | 466 kts | 4° |
| 2026-05-05 20:46 | 58.67788 | 24.57088 | 36895 ft | 467 kts | 4° |
| 2026-05-05 20:47 | 58.74191 | 24.59370 | 36898 ft | 467 kts | 4° |
| 2026-05-05 20:47 | 58.80575 | 24.61663 | 36898 ft | 467 kts | 4° |
| 2026-05-05 20:48 | 58.86971 | 24.63961 | 36891 ft | 467 kts | 4° |
| 2026-05-05 20:48 | 58.93340 | 24.66253 | 36890 ft | 467 kts | 4° |
| 2026-05-05 20:49 | 58.99730 | 24.68571 | 36655 ft | 466 kts | 4° |
| 2026-05-05 20:49 | 59.02917 | 24.69740 | 35996 ft | 466 kts | 4° |
| 2026-05-05 20:49 | 59.06101 | 24.70909 | 35310 ft | 467 kts | 3° |
| 2026-05-05 20:50 | 59.09309 | 24.72082 | 34626 ft | 468 kts | 3° |
| 2026-05-05 20:50 | 59.12460 | 24.73237 | 34073 ft | 463 kts | 2° |
| 2026-05-05 20:50 | 59.15602 | 24.74398 | 33225 ft | 457 kts | 2° |
| 2026-05-05 20:50 | 59.18723 | 24.75550 | 32370 ft | 452 kts | 2° |
| 2026-05-05 20:51 | 59.21796 | 24.76683 | 31558 ft | 446 kts | 2° |
| 2026-05-05 20:51 | 59.24843 | 24.77815 | 30774 ft | 441 kts | 2° |
| 2026-05-05 20:51 | 59.27844 | 24.78929 | 30013 ft | 436 kts | 1° |
| 2026-05-05 20:51 | 59.30811 | 24.80026 | 29146 ft | 431 kts | 1° |
| 2026-05-05 20:52 | 59.33709 | 24.81091 | 28327 ft | 426 kts | 1° |
| 2026-05-05 20:52 | 59.36611 | 24.82160 | 27548 ft | 421 kts | 1° |
| 2026-05-05 20:52 | 59.39482 | 24.83224 | 26803 ft | 417 kts | 2° |
| 2026-05-05 20:52 | 59.42289 | 24.84785 | 26089 ft | 423 kts | 13° |
| 2026-05-05 20:53 | 59.45004 | 24.87012 | 25370 ft | 421 kts | 14° |
| 2026-05-05 20:53 | 59.47702 | 24.89255 | 24670 ft | 417 kts | 14° |
| 2026-05-05 20:53 | 59.50361 | 24.91471 | 23979 ft | 413 kts | 14° |
| 2026-05-05 20:53 | 59.52953 | 24.93632 | 23277 ft | 409 kts | 14° |
| 2026-05-05 20:54 | 59.55566 | 24.95812 | 22478 ft | 405 kts | 14° |
| 2026-05-05 20:54 | 59.58149 | 24.97967 | 21726 ft | 400 kts | 14° |
| 2026-05-05 20:54 | 59.60708 | 25.00098 | 21001 ft | 396 kts | 14° |
| 2026-05-05 20:54 | 59.63237 | 25.02204 | 20288 ft | 392 kts | 14° |
| 2026-05-05 20:55 | 59.65748 | 25.04310 | 19795 ft | 389 kts | 14° |
| 2026-05-05 20:55 | 59.68194 | 25.06373 | 19506 ft | 380 kts | 14° |
| 2026-05-05 20:55 | 59.70588 | 25.08404 | 19096 ft | 369 kts | 14° |
| 2026-05-05 20:55 | 59.72932 | 25.10389 | 18694 ft | 360 kts | 13° |
| 2026-05-05 20:56 | 59.75217 | 25.12310 | 18294 ft | 359 kts | 13° |
| 2026-05-05 20:56 | 59.77517 | 25.14233 | 17854 ft | 357 kts | 13° |
| 2026-05-05 20:56 | 59.79800 | 25.16140 | 17464 ft | 355 kts | 13° |
| 2026-05-05 20:56 | 59.82079 | 25.18055 | 17079 ft | 353 kts | 14° |
| 2026-05-05 20:57 | 59.84335 | 25.19967 | 16680 ft | 351 kts | 14° |
| 2026-05-05 20:57 | 59.86558 | 25.21863 | 16293 ft | 349 kts | 14° |
| 2026-05-05 20:57 | 59.88797 | 25.23626 | 15985 ft | 343 kts | 7° |
| 2026-05-05 20:57 | 59.91119 | 25.24600 | 15851 ft | 339 kts | 356° |
| 2026-05-05 20:58 | 59.93440 | 25.24759 | 15288 ft | 326 kts | 345° |
| 2026-05-05 20:58 | 59.95693 | 25.24435 | 14805 ft | 323 kts | 345° |
| 2026-05-05 20:58 | 59.97922 | 25.24123 | 14338 ft | 320 kts | 345° |
| 2026-05-05 20:58 | 60.00142 | 25.23814 | 13871 ft | 318 kts | 345° |
| 2026-05-05 20:59 | 60.02313 | 25.23505 | 13377 ft | 316 kts | 346° |
| 2026-05-05 20:59 | 60.04497 | 25.23199 | 12902 ft | 312 kts | 347° |
| 2026-05-05 20:59 | 60.06657 | 25.22901 | 12444 ft | 308 kts | 347° |
| 2026-05-05 20:59 | 60.08780 | 25.22595 | 11995 ft | 303 kts | 348° |
| 2026-05-05 21:00 | 60.10867 | 25.22290 | 11548 ft | 299 kts | 349° |
| 2026-05-05 21:00 | 60.12932 | 25.21989 | 11109 ft | 295 kts | 349° |
| 2026-05-05 21:00 | 60.14962 | 25.21697 | 10684 ft | 290 kts | 350° |
| 2026-05-05 21:00 | 60.16940 | 25.21408 | 10262 ft | 286 kts | 351° |
| 2026-05-05 21:01 | 60.18911 | 25.21118 | 9848 ft | 282 kts | 352° |
| 2026-05-05 21:01 | 60.20856 | 25.20835 | 9411 ft | 278 kts | 352° |
| 2026-05-05 21:01 | 60.22132 | 25.20651 | 9127 ft | 276 kts | 352° |
| 2026-05-05 21:01 | 60.24049 | 25.20371 | 8723 ft | 274 kts | 352° |
| 2026-05-05 21:02 | 60.26567 | 25.20006 | 8167 ft | 272 kts | 352° |
| 2026-05-05 21:02 | 60.27840 | 25.19825 | 7889 ft | 271 kts | 352° |
| 2026-05-05 21:02 | 60.30319 | 25.20049 | 7367 ft | 273 kts | 10° |
| 2026-05-05 21:02 | 60.31539 | 25.20893 | 7087 ft | 275 kts | 22° |
| 2026-05-05 21:03 | 60.33136 | 25.23030 | 6797 ft | 278 kts | 39° |
| 2026-05-05 21:03 | 60.34423 | 25.25796 | 6539 ft | 265 kts | 45° |
| 2026-05-05 21:03 | 60.35622 | 25.28483 | 6308 ft | 249 kts | 44° |
| 2026-05-05 21:03 | 60.36765 | 25.31031 | 6141 ft | 243 kts | 44° |
| 2026-05-05 21:04 | 60.37875 | 25.33506 | 5851 ft | 234 kts | 44° |
| 2026-05-05 21:04 | 60.38960 | 25.35927 | 5448 ft | 230 kts | 44° |
| 2026-05-05 21:04 | 60.40035 | 25.38322 | 5025 ft | 229 kts | 44° |
| 2026-05-05 21:04 | 60.41105 | 25.40709 | 4585 ft | 227 kts | 44° |
| 2026-05-05 21:05 | 60.42143 | 25.43030 | 4237 ft | 222 kts | 44° |
| 2026-05-05 21:05 | 60.43157 | 25.45310 | 3956 ft | 214 kts | 44° |
| 2026-05-05 21:05 | 60.44218 | 25.47342 | 3661 ft | 203 kts | 27° |
| 2026-05-05 21:05 | 60.45459 | 25.48229 | 3530 ft | 181 kts | 2° |
| 2026-05-05 21:06 | 60.46675 | 25.47960 | 3236 ft | 174 kts | 338° |
| 2026-05-05 21:06 | 60.47671 | 25.46744 | 3044 ft | 165 kts | 316° |
| 2026-05-05 21:06 | 60.48315 | 25.44934 | 2991 ft | 155 kts | 295° |
| 2026-05-05 21:06 | 60.48575 | 25.42840 | 2987 ft | 154 kts | 276° |
| 2026-05-05 21:07 | 60.48429 | 25.40678 | 2988 ft | 156 kts | 256° |
| 2026-05-05 21:07 | 60.48087 | 25.38587 | 2994 ft | 156 kts | 256° |
| 2026-05-05 21:07 | 60.47750 | 25.36495 | 2991 ft | 156 kts | 256° |
| 2026-05-05 21:07 | 60.47413 | 25.34406 | 2995 ft | 155 kts | 256° |
| 2026-05-05 21:08 | 60.47082 | 25.32353 | 2993 ft | 155 kts | 256° |
| 2026-05-05 21:08 | 60.46746 | 25.30268 | 2995 ft | 156 kts | 256° |
| 2026-05-05 21:08 | 60.46410 | 25.28188 | 2997 ft | 156 kts | 255° |
| 2026-05-05 21:08 | 60.45792 | 25.26340 | 3005 ft | 162 kts | 232° |
| 2026-05-05 21:09 | 60.45058 | 25.24617 | 3000 ft | 161 kts | 234° |
| 2026-05-05 21:09 | 60.44315 | 25.22909 | 2999 ft | 162 kts | 233° |
| 2026-05-05 21:09 | 60.43559 | 25.21204 | 3001 ft | 162 kts | 233° |
| 2026-05-05 21:09 | 60.42805 | 25.19516 | 2990 ft | 162 kts | 233° |
| 2026-05-05 21:10 | 60.42054 | 25.17840 | 2861 ft | 161 kts | 233° |
| 2026-05-05 21:10 | 60.41318 | 25.16205 | 2670 ft | 153 kts | 233° |
| 2026-05-05 21:10 | 60.40640 | 25.14699 | 2474 ft | 137 kts | 234° |
| 2026-05-05 21:10 | 60.40014 | 25.13308 | 2288 ft | 130 kts | 234° |
| 2026-05-05 21:11 | 60.39414 | 25.11971 | 2111 ft | 127 kts | 235° |
| 2026-05-05 21:11 | 60.38824 | 25.10660 | 1941 ft | 126 kts | 235° |
| 2026-05-05 21:11 | 60.38236 | 25.09352 | 1766 ft | 125 kts | 236° |
| 2026-05-05 21:11 | 60.37652 | 25.08058 | 1592 ft | 125 kts | 236° |
| 2026-05-05 21:12 | 60.37069 | 25.06764 | 1416 ft | 124 kts | 235° |
| 2026-05-05 21:12 | 60.36485 | 25.05471 | 1236 ft | 124 kts | 234° |
| 2026-05-05 21:12 | 60.35905 | 25.04188 | 1053 ft | 123 kts | 232° |
| 2026-05-05 21:12 | 60.35325 | 25.02903 | 864 ft | 124 kts | 231° |
| 2026-05-05 21:13 | 60.34747 | 25.01626 | 699 ft | 122 kts | 231° |
| 2026-05-05 21:13 | 60.34176 | 25.00364 | 534 ft | 121 kts | 229° |
| 2026-05-05 21:13 | 60.33612 | 24.99117 | 369 ft | 120 kts | 230° |
| 2026-05-05 21:13 | 60.33052 | 24.97868 | 206 ft | 119 kts | 226° |
| 2026-05-05 21:14 | 60.32573 | 24.96823 | 173 ft | 72 kts | 228° |
| 2026-05-05 21:14 | 60.32383 | 24.96401 | 177 ft | 30 kts | 227° |
| 2026-05-05 21:14 | 60.32249 | 24.96103 | 178 ft | 28 kts | 227° |
| 2026-05-05 21:14 | 60.32114 | 24.95821 | 176 ft | 28 kts | 219° |
| 2026-05-05 21:15 | 60.31959 | 24.95652 | 173 ft | 13 kts | 202° |
| 2026-05-05 21:15 | 60.31886 | 24.95608 | 171 ft | 9 kts | 195° |
| 2026-05-05 21:15 | 60.31837 | 24.95606 | 170 ft | 7 kts | 165° |
| 2026-05-05 21:15 | 60.31783 | 24.95628 | 170 ft | 9 kts | 200° |
| 2026-05-05 21:16 | 60.31730 | 24.95535 | 170 ft | 11 kts | 202° |
| 2026-05-05 21:16 | 60.31678 | 24.95587 | 167 ft | 7 kts | 135° |
| 2026-05-05 21:16 | 60.31655 | 24.95633 | 167 ft | 0 kts | 134° |
| 2026-05-05 21:16 | 60.31644 | 24.95656 | 167 ft | 4 kts | 134° |
| 2026-05-05 21:17 | 60.31610 | 24.95681 | 167 ft | 6 kts | 177° |
| 2026-05-05 21:17 | 60.31577 | 24.95627 | 167 ft | 7 kts | 211° |
| 2026-05-05 21:17 | 60.31537 | 24.95664 | 167 ft | 7 kts | 136° |
| 2026-05-05 21:17 | 60.31518 | 24.95700 | 167 ft | 1 kts | 137° |
| 2026-05-05 21:18 | 60.31512 | 24.95713 | 167 ft | 1 kts | 137° |
| 2026-05-05 21:18 | 60.31507 | 24.95722 | 167 ft | 0 kts | 137° |
| 2026-05-05 21:18 | 60.31506 | 24.95722 | 167 ft | 0 kts | 137° |
| 2026-05-05 21:29 | 60.31507 | 24.95722 | 167 ft | 0 kts | 137° |